ICE5050 BIKF-BGGH
Flight info
| Callsign | ICE5050 |
|---|---|
| Flight time | 1h 59m |
| Altitude | 38000 |
| Route | SORIR3A SORIR DCT SOPEN DCT SABAG DCT NAPIB DCT INBAN DCT GETDA |
| Aircraft | B38M/M-SDE1FGHILORVWXY/HB1 |
Departure
| Time | 2026-05-07 21:35 |
|---|---|
| Airport | Keflavik International Airport (BIKF) |
Arrival
| Time | 2026-05-07 23:34 |
|---|---|
| Airport | Nuuk International Airport (BGGH) |
| Time | Latitude | Longitude | Altitude | Speed | Heading |
|---|---|---|---|---|---|
| 2026-05-07 21:07 | 63.99255 | -22.61811 | 182 ft | 0 kts | 90° |
| 2026-05-07 21:19 | 63.99255 | -22.61812 | 155 ft | 0 kts | 90° |
| 2026-05-07 21:20 | 63.99255 | -22.61829 | 182 ft | 3 kts | 90° |
| 2026-05-07 21:20 | 63.99255 | -22.61872 | 182 ft | 3 kts | 90° |
| 2026-05-07 21:21 | 63.99255 | -22.61915 | 182 ft | 3 kts | 90° |
| 2026-05-07 21:21 | 63.99255 | -22.61956 | 182 ft | 3 kts | 90° |
| 2026-05-07 21:21 | 63.99256 | -22.61992 | 182 ft | 0 kts | 90° |
| 2026-05-07 21:28 | 63.99256 | -22.61965 | 182 ft | 6 kts | 90° |
| 2026-05-07 21:29 | 63.99232 | -22.61895 | 182 ft | 6 kts | 163° |
| 2026-05-07 21:29 | 63.99182 | -22.61892 | 182 ft | 4 kts | 151° |
| 2026-05-07 21:29 | 63.99170 | -22.61777 | 182 ft | 12 kts | 91° |
| 2026-05-07 21:29 | 63.99172 | -22.61517 | 182 ft | 21 kts | 92° |
| 2026-05-07 21:30 | 63.99170 | -22.61161 | 182 ft | 17 kts | 89° |
| 2026-05-07 21:30 | 63.99136 | -22.60961 | 182 ft | 13 kts | 163° |
| 2026-05-07 21:30 | 63.99027 | -22.60950 | 182 ft | 18 kts | 180° |
| 2026-05-07 21:30 | 63.98886 | -22.60949 | 183 ft | 23 kts | 180° |
| 2026-05-07 21:31 | 63.98714 | -22.60951 | 183 ft | 27 kts | 180° |
| 2026-05-07 21:31 | 63.98509 | -22.60948 | 182 ft | 32 kts | 179° |
| 2026-05-07 21:31 | 63.98269 | -22.60944 | 182 ft | 36 kts | 181° |
| 2026-05-07 21:31 | 63.98001 | -22.60948 | 182 ft | 41 kts | 180° |
| 2026-05-07 21:32 | 63.97766 | -22.60959 | 182 ft | 33 kts | 181° |
| 2026-05-07 21:32 | 63.97521 | -22.60956 | 182 ft | 37 kts | 178° |
| 2026-05-07 21:32 | 63.97244 | -22.60952 | 182 ft | 42 kts | 180° |
| 2026-05-07 21:32 | 63.96955 | -22.60951 | 182 ft | 38 kts | 179° |
| 2026-05-07 21:33 | 63.96718 | -22.60964 | 182 ft | 35 kts | 180° |
| 2026-05-07 21:33 | 63.96544 | -22.60954 | 182 ft | 17 kts | 178° |
| 2026-05-07 21:33 | 63.96458 | -22.60829 | 182 ft | 16 kts | 89° |
| 2026-05-07 21:33 | 63.96475 | -22.60582 | 182 ft | 13 kts | 59° |
| 2026-05-07 21:34 | 63.96515 | -22.60551 | 182 ft | 3 kts | 357° |
| 2026-05-07 21:34 | 63.96585 | -22.60554 | 182 ft | 43 kts | 359° |
| 2026-05-07 21:35 | 63.97173 | -22.60555 | 182 ft | 123 kts | 360° |
| 2026-05-07 21:35 | 63.98221 | -22.60563 | 401 ft | 172 kts | 359° |
| 2026-05-07 21:35 | 63.99487 | -22.60588 | 1453 ft | 174 kts | 1° |
| 2026-05-07 21:35 | 64.00710 | -22.60577 | 2660 ft | 184 kts | 1° |
| 2026-05-07 21:36 | 64.02070 | -22.60571 | 3337 ft | 207 kts | 1° |
| 2026-05-07 21:36 | 64.03579 | -22.60569 | 4089 ft | 226 kts | 1° |
| 2026-05-07 21:36 | 64.05191 | -22.61055 | 4916 ft | 243 kts | 338° |
| 2026-05-07 21:36 | 64.06502 | -22.63488 | 6057 ft | 252 kts | 309° |
| 2026-05-07 21:37 | 64.07218 | -22.67229 | 7036 ft | 264 kts | 288° |
| 2026-05-07 21:37 | 64.07699 | -22.71236 | 8042 ft | 267 kts | 290° |
| 2026-05-07 21:37 | 64.08213 | -22.75354 | 9065 ft | 270 kts | 290° |
| 2026-05-07 21:37 | 64.08733 | -22.79502 | 10097 ft | 273 kts | 289° |
| 2026-05-07 21:38 | 64.09265 | -22.83746 | 10849 ft | 284 kts | 289° |
| 2026-05-07 21:38 | 64.09828 | -22.88239 | 11300 ft | 304 kts | 289° |
| 2026-05-07 21:38 | 64.10426 | -22.93032 | 11757 ft | 322 kts | 289° |
| 2026-05-07 21:38 | 64.11054 | -22.98070 | 12113 ft | 341 kts | 289° |
| 2026-05-07 21:39 | 64.11723 | -23.03462 | 12406 ft | 360 kts | 289° |
| 2026-05-07 21:39 | 64.12419 | -23.09105 | 12791 ft | 374 kts | 288° |
| 2026-05-07 21:39 | 64.13131 | -23.14880 | 13521 ft | 378 kts | 288° |
| 2026-05-07 21:39 | 64.13846 | -23.20707 | 14226 ft | 382 kts | 288° |
| 2026-05-07 21:40 | 64.14566 | -23.26594 | 14866 ft | 385 kts | 288° |
| 2026-05-07 21:40 | 64.15289 | -23.32526 | 15499 ft | 389 kts | 288° |
| 2026-05-07 21:40 | 64.16016 | -23.38522 | 16129 ft | 392 kts | 288° |
| 2026-05-07 21:40 | 64.16746 | -23.44567 | 16758 ft | 395 kts | 288° |
| 2026-05-07 21:41 | 64.17482 | -23.50667 | 17364 ft | 398 kts | 288° |
| 2026-05-07 21:41 | 64.18297 | -23.56746 | 17919 ft | 400 kts | 295° |
| 2026-05-07 21:41 | 64.19439 | -23.62480 | 18486 ft | 402 kts | 297° |
| 2026-05-07 21:41 | 64.20614 | -23.68362 | 18986 ft | 406 kts | 297° |
| 2026-05-07 21:42 | 64.21799 | -23.74284 | 19490 ft | 408 kts | 297° |
| 2026-05-07 21:42 | 64.22988 | -23.80238 | 20002 ft | 411 kts | 297° |
| 2026-05-07 21:42 | 64.24180 | -23.86224 | 20489 ft | 413 kts | 297° |
| 2026-05-07 21:42 | 64.25380 | -23.92267 | 20982 ft | 416 kts | 297° |
| 2026-05-07 21:43 | 64.26581 | -23.98332 | 21460 ft | 419 kts | 297° |
| 2026-05-07 21:43 | 64.27792 | -24.04466 | 21944 ft | 421 kts | 297° |
| 2026-05-07 21:43 | 64.28988 | -24.10546 | 22401 ft | 424 kts | 298° |
| 2026-05-07 21:43 | 64.30205 | -24.16750 | 22867 ft | 426 kts | 298° |
| 2026-05-07 21:44 | 64.31424 | -24.22977 | 23318 ft | 428 kts | 298° |
| 2026-05-07 21:44 | 64.32653 | -24.29279 | 23755 ft | 431 kts | 298° |
| 2026-05-07 21:44 | 64.33886 | -24.35618 | 24145 ft | 433 kts | 298° |
| 2026-05-07 21:44 | 64.35120 | -24.41990 | 24513 ft | 435 kts | 298° |
| 2026-05-07 21:45 | 64.36359 | -24.48397 | 24878 ft | 437 kts | 298° |
| 2026-05-07 21:45 | 64.37589 | -24.54789 | 25243 ft | 439 kts | 298° |
| 2026-05-07 21:45 | 64.38844 | -24.61319 | 25566 ft | 442 kts | 298° |
| 2026-05-07 21:45 | 64.40065 | -24.67728 | 25911 ft | 444 kts | 297° |
| 2026-05-07 21:46 | 64.41034 | -24.74603 | 26258 ft | 449 kts | 292° |
| 2026-05-07 21:46 | 64.41970 | -24.81516 | 26671 ft | 449 kts | 292° |
| 2026-05-07 21:46 | 64.42921 | -24.88396 | 27143 ft | 448 kts | 293° |
| 2026-05-07 21:46 | 64.43874 | -24.95219 | 27602 ft | 446 kts | 293° |
| 2026-05-07 21:47 | 64.44832 | -25.02065 | 28068 ft | 445 kts | 294° |
| 2026-05-07 21:47 | 64.45786 | -25.08905 | 28543 ft | 444 kts | 294° |
| 2026-05-07 21:47 | 64.46734 | -25.15720 | 29006 ft | 443 kts | 294° |
| 2026-05-07 21:47 | 64.47664 | -25.22439 | 29467 ft | 442 kts | 294° |
| 2026-05-07 21:48 | 64.48602 | -25.29228 | 29925 ft | 441 kts | 294° |
| 2026-05-07 21:48 | 64.49532 | -25.35999 | 30371 ft | 440 kts | 294° |
| 2026-05-07 21:48 | 64.50457 | -25.42761 | 30738 ft | 439 kts | 294° |
| 2026-05-07 21:48 | 64.51378 | -25.49527 | 31059 ft | 439 kts | 294° |
| 2026-05-07 21:49 | 64.52297 | -25.56294 | 31392 ft | 439 kts | 294° |
| 2026-05-07 21:49 | 64.53212 | -25.63067 | 31722 ft | 439 kts | 294° |
| 2026-05-07 21:49 | 64.54126 | -25.69849 | 32041 ft | 439 kts | 294° |
| 2026-05-07 21:49 | 64.55037 | -25.76647 | 32354 ft | 439 kts | 294° |
| 2026-05-07 21:50 | 64.55938 | -25.83390 | 32669 ft | 439 kts | 294° |
| 2026-05-07 21:50 | 64.56843 | -25.90199 | 33000 ft | 439 kts | 293° |
| 2026-05-07 21:50 | 64.57744 | -25.97001 | 33302 ft | 439 kts | 293° |
| 2026-05-07 21:50 | 64.58638 | -26.03771 | 33613 ft | 439 kts | 293° |
| 2026-05-07 21:51 | 64.59531 | -26.10569 | 33918 ft | 439 kts | 293° |
| 2026-05-07 21:51 | 64.60419 | -26.17364 | 34224 ft | 439 kts | 293° |
| 2026-05-07 21:51 | 64.61306 | -26.24167 | 34497 ft | 438 kts | 293° |
| 2026-05-07 21:51 | 64.62189 | -26.30981 | 34724 ft | 439 kts | 293° |
| 2026-05-07 21:52 | 64.63068 | -26.37782 | 34942 ft | 439 kts | 292° |
| 2026-05-07 21:52 | 64.63935 | -26.44518 | 35168 ft | 439 kts | 292° |
| 2026-05-07 21:52 | 64.64811 | -26.51360 | 35404 ft | 440 kts | 292° |
| 2026-05-07 21:52 | 64.65683 | -26.58194 | 35624 ft | 440 kts | 292° |
| 2026-05-07 21:53 | 64.66552 | -26.65033 | 35854 ft | 440 kts | 292° |
| 2026-05-07 21:53 | 64.67421 | -26.71902 | 36082 ft | 440 kts | 292° |
| 2026-05-07 21:53 | 64.68285 | -26.78746 | 36305 ft | 440 kts | 292° |
| 2026-05-07 21:53 | 64.69149 | -26.85619 | 36523 ft | 440 kts | 292° |
| 2026-05-07 21:54 | 64.69972 | -26.92503 | 36736 ft | 443 kts | 288° |
| 2026-05-07 21:54 | 64.70626 | -26.99569 | 36943 ft | 444 kts | 288° |
| 2026-05-07 21:54 | 64.71291 | -27.06619 | 37144 ft | 444 kts | 288° |
| 2026-05-07 21:54 | 64.71964 | -27.13666 | 37361 ft | 444 kts | 288° |
| 2026-05-07 21:55 | 64.72638 | -27.20709 | 37555 ft | 444 kts | 288° |
| 2026-05-07 21:55 | 64.73308 | -27.27741 | 37750 ft | 444 kts | 288° |
| 2026-05-07 21:55 | 64.73981 | -27.34822 | 37932 ft | 444 kts | 288° |
| 2026-05-07 21:55 | 64.74638 | -27.41785 | 38129 ft | 444 kts | 287° |
| 2026-05-07 21:56 | 64.75301 | -27.48839 | 38277 ft | 444 kts | 287° |
| 2026-05-07 21:56 | 64.75962 | -27.55918 | 38298 ft | 445 kts | 287° |
| 2026-05-07 21:56 | 64.77270 | -27.70038 | 38281 ft | 443 kts | 287° |
| 2026-05-07 21:57 | 64.78563 | -27.84153 | 38280 ft | 442 kts | 287° |
| 2026-05-07 21:57 | 64.79840 | -27.98251 | 38278 ft | 442 kts | 287° |
| 2026-05-07 21:58 | 64.81102 | -28.12351 | 38276 ft | 441 kts | 287° |
| 2026-05-07 21:58 | 64.82347 | -28.26430 | 38276 ft | 440 kts | 287° |
| 2026-05-07 21:59 | 64.83575 | -28.40461 | 38275 ft | 440 kts | 287° |
| 2026-05-07 21:59 | 64.84792 | -28.54545 | 38275 ft | 440 kts | 287° |
| 2026-05-07 22:00 | 64.85995 | -28.68634 | 38272 ft | 439 kts | 287° |
| 2026-05-07 22:00 | 64.87184 | -28.82713 | 38271 ft | 439 kts | 287° |
| 2026-05-07 22:01 | 64.88358 | -28.96800 | 38483 ft | 438 kts | 287° |
| 2026-05-07 22:01 | 64.88940 | -29.03841 | 38264 ft | 438 kts | 287° |
| 2026-05-07 22:01 | 64.89514 | -29.10838 | 38268 ft | 437 kts | 287° |
| 2026-05-07 22:02 | 64.90661 | -29.24932 | 38277 ft | 437 kts | 286° |
| 2026-05-07 22:02 | 64.91791 | -29.38997 | 38267 ft | 437 kts | 286° |
| 2026-05-07 22:03 | 64.92906 | -29.53051 | 38278 ft | 436 kts | 286° |
| 2026-05-07 22:03 | 64.94001 | -29.67032 | 38269 ft | 436 kts | 286° |
| 2026-05-07 22:04 | 64.95088 | -29.81101 | 38276 ft | 436 kts | 286° |
| 2026-05-07 22:04 | 64.96163 | -29.95181 | 38271 ft | 436 kts | 285° |
| 2026-05-07 22:05 | 64.97222 | -30.09250 | 38269 ft | 435 kts | 285° |
| 2026-05-07 22:05 | 64.98270 | -30.23342 | 38266 ft | 435 kts | 285° |
| 2026-05-07 22:06 | 64.99130 | -30.35066 | 38263 ft | 435 kts | 285° |
| 2026-05-07 22:06 | 65.00154 | -30.49186 | 38263 ft | 435 kts | 285° |
| 2026-05-07 22:07 | 65.01162 | -30.63299 | 38261 ft | 435 kts | 285° |
| 2026-05-07 22:07 | 65.02153 | -30.77348 | 38266 ft | 436 kts | 285° |
| 2026-05-07 22:08 | 65.03136 | -30.91495 | 38261 ft | 436 kts | 285° |
| 2026-05-07 22:08 | 65.04108 | -31.05681 | 38260 ft | 436 kts | 284° |
| 2026-05-07 22:09 | 65.05067 | -31.19889 | 38258 ft | 437 kts | 284° |
| 2026-05-07 22:09 | 65.06012 | -31.34110 | 38261 ft | 437 kts | 284° |
| 2026-05-07 22:10 | 65.06941 | -31.48284 | 38260 ft | 437 kts | 284° |
| 2026-05-07 22:10 | 65.07860 | -31.62536 | 38257 ft | 438 kts | 284° |
| 2026-05-07 22:11 | 65.08769 | -31.76846 | 38259 ft | 438 kts | 284° |
| 2026-05-07 22:11 | 65.09662 | -31.91133 | 38261 ft | 438 kts | 284° |
| 2026-05-07 22:12 | 65.10544 | -32.05463 | 38258 ft | 439 kts | 284° |
| 2026-05-07 22:12 | 65.11412 | -32.19801 | 38257 ft | 439 kts | 283° |
| 2026-05-07 22:13 | 65.12263 | -32.34090 | 38256 ft | 439 kts | 283° |
| 2026-05-07 22:13 | 65.13105 | -32.48470 | 38259 ft | 439 kts | 283° |
| 2026-05-07 22:14 | 65.13934 | -32.62870 | 38257 ft | 439 kts | 283° |
| 2026-05-07 22:14 | 65.14748 | -32.77269 | 38258 ft | 440 kts | 283° |
| 2026-05-07 22:15 | 65.15549 | -32.91694 | 38256 ft | 440 kts | 283° |
| 2026-05-07 22:15 | 65.16332 | -33.06039 | 38260 ft | 440 kts | 282° |
| 2026-05-07 22:16 | 65.17106 | -33.20484 | 38257 ft | 439 kts | 282° |
| 2026-05-07 22:16 | 65.17866 | -33.34922 | 38249 ft | 439 kts | 282° |
| 2026-05-07 22:17 | 65.18611 | -33.49359 | 38257 ft | 439 kts | 282° |
| 2026-05-07 22:17 | 65.19341 | -33.63781 | 38247 ft | 439 kts | 282° |
| 2026-05-07 22:18 | 65.20407 | -33.85372 | 38242 ft | 439 kts | 282° |
| 2026-05-07 22:19 | 65.21104 | -33.99829 | 38245 ft | 439 kts | 281° |
| 2026-05-07 22:19 | 65.21785 | -34.14291 | 38244 ft | 439 kts | 281° |
| 2026-05-07 22:20 | 65.22453 | -34.28753 | 38238 ft | 439 kts | 281° |
| 2026-05-07 22:20 | 65.23107 | -34.43210 | 38241 ft | 439 kts | 281° |
| 2026-05-07 22:21 | 65.23748 | -34.57575 | 38235 ft | 439 kts | 281° |
| 2026-05-07 22:21 | 65.24383 | -34.72108 | 38237 ft | 440 kts | 281° |
| 2026-05-07 22:22 | 65.25005 | -34.86641 | 38236 ft | 440 kts | 281° |
| 2026-05-07 22:22 | 65.25614 | -35.01186 | 38236 ft | 440 kts | 280° |
| 2026-05-07 22:23 | 65.26210 | -35.15733 | 38232 ft | 441 kts | 280° |
| 2026-05-07 22:23 | 65.26681 | -35.30347 | 38229 ft | 444 kts | 275° |
| 2026-05-07 22:23 | 65.26715 | -35.37714 | 38114 ft | 443 kts | 276° |
| 2026-05-07 22:24 | 65.26781 | -35.45055 | 38218 ft | 439 kts | 276° |
| 2026-05-07 22:24 | 65.26936 | -35.59509 | 38226 ft | 437 kts | 276° |
| 2026-05-07 22:25 | 65.27089 | -35.74092 | 38222 ft | 436 kts | 276° |
| 2026-05-07 22:25 | 65.27228 | -35.88445 | 38225 ft | 435 kts | 275° |
| 2026-05-07 22:26 | 65.27354 | -36.02865 | 38222 ft | 434 kts | 275° |
| 2026-05-07 22:26 | 65.27466 | -36.17296 | 38223 ft | 433 kts | 275° |
| 2026-05-07 22:27 | 65.27571 | -36.32739 | 38223 ft | 433 kts | 275° |
| 2026-05-07 22:27 | 65.27653 | -36.47045 | 38223 ft | 433 kts | 274° |
| 2026-05-07 22:28 | 65.27723 | -36.61417 | 38224 ft | 433 kts | 274° |
| 2026-05-07 22:28 | 65.27779 | -36.75803 | 38224 ft | 433 kts | 274° |
| 2026-05-07 22:29 | 65.27821 | -36.90213 | 38220 ft | 433 kts | 274° |
| 2026-05-07 22:29 | 65.27849 | -37.04589 | 38221 ft | 433 kts | 273° |
| 2026-05-07 22:30 | 65.27863 | -37.18965 | 38211 ft | 433 kts | 273° |
| 2026-05-07 22:30 | 65.27864 | -37.33237 | 38221 ft | 433 kts | 272° |
| 2026-05-07 22:31 | 65.27852 | -37.47610 | 38211 ft | 433 kts | 272° |
| 2026-05-07 22:31 | 65.27825 | -37.61993 | 38211 ft | 433 kts | 272° |
| 2026-05-07 22:32 | 65.27785 | -37.76364 | 38224 ft | 433 kts | 272° |
| 2026-05-07 22:32 | 65.27731 | -37.90748 | 38216 ft | 433 kts | 271° |
| 2026-05-07 22:33 | 65.27664 | -38.05121 | 38213 ft | 432 kts | 271° |
| 2026-05-07 22:33 | 65.27582 | -38.19508 | 38223 ft | 432 kts | 271° |
| 2026-05-07 22:34 | 65.27488 | -38.33785 | 38222 ft | 432 kts | 271° |
| 2026-05-07 22:34 | 65.27380 | -38.48145 | 38220 ft | 432 kts | 270° |
| 2026-05-07 22:35 | 65.27257 | -38.62509 | 38216 ft | 432 kts | 270° |
| 2026-05-07 22:35 | 65.27122 | -38.76868 | 38219 ft | 432 kts | 270° |
| 2026-05-07 22:36 | 65.26999 | -38.88783 | 38220 ft | 432 kts | 270° |
| 2026-05-07 22:36 | 65.26838 | -39.03159 | 38219 ft | 433 kts | 269° |
| 2026-05-07 22:37 | 65.26663 | -39.17520 | 38222 ft | 433 kts | 269° |
| 2026-05-07 22:37 | 65.26474 | -39.31898 | 38219 ft | 433 kts | 269° |
| 2026-05-07 22:38 | 65.26272 | -39.46271 | 38219 ft | 433 kts | 269° |
| 2026-05-07 22:38 | 65.26057 | -39.60584 | 38217 ft | 434 kts | 269° |
| 2026-05-07 22:39 | 65.25827 | -39.74990 | 38221 ft | 434 kts | 268° |
| 2026-05-07 22:39 | 65.25583 | -39.89403 | 38213 ft | 434 kts | 268° |
| 2026-05-07 22:40 | 65.25327 | -40.03723 | 38218 ft | 434 kts | 268° |
| 2026-05-07 22:40 | 65.25055 | -40.18119 | 38229 ft | 435 kts | 268° |
| 2026-05-07 22:41 | 65.24770 | -40.32533 | 38230 ft | 435 kts | 267° |
| 2026-05-07 22:41 | 65.24470 | -40.46960 | 38232 ft | 435 kts | 267° |
| 2026-05-07 22:42 | 65.24157 | -40.61364 | 38241 ft | 435 kts | 267° |
| 2026-05-07 22:42 | 65.23829 | -40.75825 | 38243 ft | 435 kts | 267° |
| 2026-05-07 22:43 | 65.23488 | -40.90255 | 38248 ft | 435 kts | 266° |
| 2026-05-07 22:43 | 65.23135 | -41.04583 | 38250 ft | 436 kts | 266° |
| 2026-05-07 22:44 | 65.22766 | -41.19002 | 38255 ft | 436 kts | 266° |
| 2026-05-07 22:44 | 65.22383 | -41.33413 | 38258 ft | 436 kts | 266° |
| 2026-05-07 22:45 | 65.21987 | -41.47827 | 38260 ft | 435 kts | 266° |
| 2026-05-07 22:45 | 65.21576 | -41.62233 | 38259 ft | 435 kts | 266° |
| 2026-05-07 22:46 | 65.21153 | -41.76625 | 38253 ft | 435 kts | 265° |
| 2026-05-07 22:46 | 65.20715 | -41.91018 | 38243 ft | 435 kts | 265° |
| 2026-05-07 22:47 | 65.20264 | -42.05380 | 38231 ft | 434 kts | 265° |
| 2026-05-07 22:47 | 65.19803 | -42.19636 | 38219 ft | 434 kts | 265° |
| 2026-05-07 22:48 | 65.19326 | -42.33965 | 38218 ft | 434 kts | 265° |
| 2026-05-07 22:48 | 65.18835 | -42.48286 | 38210 ft | 433 kts | 264° |
| 2026-05-07 22:49 | 65.18332 | -42.62582 | 38206 ft | 433 kts | 264° |
| 2026-05-07 22:49 | 65.17815 | -42.76869 | 38205 ft | 433 kts | 264° |
| 2026-05-07 22:50 | 65.17285 | -42.91149 | 38197 ft | 433 kts | 264° |
| 2026-05-07 22:50 | 65.16755 | -43.05189 | 38197 ft | 432 kts | 264° |
| 2026-05-07 22:51 | 65.16205 | -43.19439 | 38197 ft | 432 kts | 263° |
| 2026-05-07 22:51 | 65.15642 | -43.33682 | 38206 ft | 432 kts | 263° |
| 2026-05-07 22:52 | 65.15068 | -43.47910 | 38204 ft | 432 kts | 263° |
| 2026-05-07 22:52 | 65.14480 | -43.62147 | 38209 ft | 432 kts | 263° |
| 2026-05-07 22:53 | 65.13947 | -43.76360 | 38211 ft | 432 kts | 264° |
| 2026-05-07 22:53 | 65.13539 | -43.90614 | 38215 ft | 432 kts | 264° |
| 2026-05-07 22:54 | 65.13123 | -44.04791 | 38206 ft | 432 kts | 264° |
| 2026-05-07 22:54 | 65.12693 | -44.19048 | 38199 ft | 433 kts | 264° |
| 2026-05-07 22:55 | 65.12247 | -44.33321 | 38207 ft | 433 kts | 264° |
| 2026-05-07 22:55 | 65.11788 | -44.47591 | 38212 ft | 433 kts | 264° |
| 2026-05-07 22:56 | 65.11316 | -44.61849 | 38215 ft | 433 kts | 264° |
| 2026-05-07 22:56 | 65.10834 | -44.76016 | 38226 ft | 433 kts | 263° |
| 2026-05-07 22:57 | 65.10334 | -44.90284 | 38219 ft | 433 kts | 263° |
| 2026-05-07 22:57 | 65.09821 | -45.04540 | 38222 ft | 434 kts | 263° |
| 2026-05-07 22:58 | 65.09295 | -45.18775 | 38209 ft | 434 kts | 263° |
| 2026-05-07 22:58 | 65.08752 | -45.33080 | 38222 ft | 435 kts | 263° |
| 2026-05-07 22:59 | 65.08197 | -45.47367 | 38210 ft | 435 kts | 263° |
| 2026-05-07 22:59 | 65.07627 | -45.61646 | 38221 ft | 435 kts | 263° |
| 2026-05-07 23:00 | 65.07047 | -45.75853 | 38211 ft | 436 kts | 263° |
| 2026-05-07 23:00 | 65.06449 | -45.90173 | 38216 ft | 437 kts | 262° |
| 2026-05-07 23:01 | 65.05837 | -46.04487 | 38213 ft | 437 kts | 262° |
| 2026-05-07 23:01 | 65.05209 | -46.18817 | 38208 ft | 437 kts | 262° |
| 2026-05-07 23:02 | 65.04568 | -46.33156 | 38207 ft | 438 kts | 262° |
| 2026-05-07 23:02 | 65.03913 | -46.47486 | 38208 ft | 438 kts | 262° |
| 2026-05-07 23:03 | 65.03242 | -46.61860 | 38204 ft | 438 kts | 262° |
| 2026-05-07 23:03 | 65.02563 | -46.76100 | 38197 ft | 439 kts | 262° |
| 2026-05-07 23:04 | 65.01864 | -46.90465 | 38196 ft | 439 kts | 262° |
| 2026-05-07 23:04 | 65.01154 | -47.04785 | 38195 ft | 439 kts | 261° |
| 2026-05-07 23:05 | 65.00429 | -47.19105 | 38194 ft | 439 kts | 261° |
| 2026-05-07 23:05 | 64.99732 | -47.32617 | 38192 ft | 439 kts | 261° |
| 2026-05-07 23:06 | 64.98986 | -47.46822 | 38190 ft | 439 kts | 261° |
| 2026-05-07 23:06 | 64.98219 | -47.61148 | 38188 ft | 439 kts | 261° |
| 2026-05-07 23:07 | 64.97443 | -47.75380 | 38185 ft | 439 kts | 261° |
| 2026-05-07 23:07 | 64.96650 | -47.89672 | 38186 ft | 439 kts | 261° |
| 2026-05-07 23:08 | 64.95842 | -48.03982 | 38186 ft | 439 kts | 260° |
| 2026-05-07 23:08 | 64.95020 | -48.18294 | 38187 ft | 440 kts | 260° |
| 2026-05-07 23:09 | 64.94186 | -48.32564 | 38182 ft | 440 kts | 260° |
| 2026-05-07 23:09 | 64.93340 | -48.46776 | 38188 ft | 440 kts | 260° |
| 2026-05-07 23:10 | 64.92479 | -48.61035 | 38188 ft | 440 kts | 260° |
| 2026-05-07 23:10 | 64.91600 | -48.75337 | 38131 ft | 441 kts | 259° |
| 2026-05-07 23:11 | 64.90707 | -48.89648 | 38135 ft | 441 kts | 259° |
| 2026-05-07 23:11 | 64.89799 | -49.03960 | 38134 ft | 441 kts | 259° |
| 2026-05-07 23:12 | 64.88884 | -49.18147 | 38136 ft | 441 kts | 259° |
| 2026-05-07 23:12 | 64.87960 | -49.32267 | 37649 ft | 432 kts | 259° |
| 2026-05-07 23:12 | 64.87500 | -49.39227 | 37068 ft | 428 kts | 259° |
| 2026-05-07 23:13 | 64.87044 | -49.46117 | 36486 ft | 425 kts | 259° |
| 2026-05-07 23:13 | 64.86586 | -49.52969 | 35926 ft | 422 kts | 258° |
| 2026-05-07 23:13 | 64.86129 | -49.59781 | 35368 ft | 419 kts | 258° |
| 2026-05-07 23:13 | 64.85674 | -49.66501 | 34834 ft | 415 kts | 258° |
| 2026-05-07 23:14 | 64.85219 | -49.73188 | 34302 ft | 412 kts | 258° |
| 2026-05-07 23:14 | 64.84766 | -49.79811 | 33662 ft | 409 kts | 258° |
| 2026-05-07 23:14 | 64.84316 | -49.86348 | 33009 ft | 405 kts | 258° |
| 2026-05-07 23:14 | 64.83862 | -49.92884 | 32368 ft | 402 kts | 258° |
| 2026-05-07 23:15 | 64.83323 | -49.99272 | 31717 ft | 396 kts | 250° |
| 2026-05-07 23:15 | 64.82236 | -50.05170 | 31094 ft | 391 kts | 245° |
| 2026-05-07 23:15 | 64.81108 | -50.10965 | 30413 ft | 388 kts | 245° |
| 2026-05-07 23:15 | 64.79979 | -50.16676 | 29671 ft | 385 kts | 245° |
| 2026-05-07 23:16 | 64.78841 | -50.22359 | 28761 ft | 384 kts | 245° |
| 2026-05-07 23:16 | 64.77696 | -50.28036 | 27772 ft | 386 kts | 245° |
| 2026-05-07 23:16 | 64.76553 | -50.33679 | 26726 ft | 390 kts | 244° |
| 2026-05-07 23:16 | 64.75362 | -50.39537 | 25613 ft | 396 kts | 244° |
| 2026-05-07 23:17 | 64.74174 | -50.45366 | 24653 ft | 399 kts | 243° |
| 2026-05-07 23:17 | 64.72989 | -50.51167 | 23899 ft | 397 kts | 243° |
| 2026-05-07 23:17 | 64.71798 | -50.56980 | 23071 ft | 395 kts | 243° |
| 2026-05-07 23:17 | 64.70610 | -50.62766 | 22253 ft | 393 kts | 243° |
| 2026-05-07 23:18 | 64.69430 | -50.68489 | 21441 ft | 391 kts | 243° |
| 2026-05-07 23:18 | 64.68250 | -50.74201 | 20657 ft | 389 kts | 242° |
| 2026-05-07 23:18 | 64.67457 | -50.78032 | 20137 ft | 388 kts | 242° |
| 2026-05-07 23:18 | 64.65895 | -50.85555 | 19165 ft | 387 kts | 242° |
| 2026-05-07 23:19 | 64.64719 | -50.91199 | 18455 ft | 386 kts | 242° |
| 2026-05-07 23:19 | 64.63539 | -50.96845 | 17646 ft | 386 kts | 242° |
| 2026-05-07 23:19 | 64.62366 | -51.02449 | 16952 ft | 384 kts | 242° |
| 2026-05-07 23:19 | 64.61201 | -51.07996 | 16435 ft | 378 kts | 242° |
| 2026-05-07 23:20 | 64.60053 | -51.13447 | 15952 ft | 373 kts | 241° |
| 2026-05-07 23:20 | 64.58919 | -51.18822 | 15462 ft | 368 kts | 241° |
| 2026-05-07 23:20 | 64.57809 | -51.24065 | 15021 ft | 362 kts | 241° |
| 2026-05-07 23:20 | 64.56724 | -51.29184 | 14651 ft | 356 kts | 241° |
| 2026-05-07 23:21 | 64.55642 | -51.34282 | 14386 ft | 348 kts | 241° |
| 2026-05-07 23:21 | 64.54518 | -51.39141 | 14157 ft | 336 kts | 231° |
| 2026-05-07 23:21 | 64.52822 | -51.42630 | 14001 ft | 320 kts | 207° |
| 2026-05-07 23:21 | 64.50778 | -51.44410 | 13884 ft | 308 kts | 198° |
| 2026-05-07 23:22 | 64.48775 | -51.45944 | 13729 ft | 298 kts | 198° |
| 2026-05-07 23:22 | 64.46836 | -51.47415 | 13563 ft | 289 kts | 198° |
| 2026-05-07 23:22 | 64.44947 | -51.48835 | 13399 ft | 280 kts | 198° |
| 2026-05-07 23:22 | 64.43123 | -51.50198 | 13269 ft | 270 kts | 198° |
| 2026-05-07 23:23 | 64.41363 | -51.51510 | 13092 ft | 263 kts | 198° |
| 2026-05-07 23:23 | 64.39629 | -51.52799 | 12728 ft | 262 kts | 198° |
| 2026-05-07 23:23 | 64.37919 | -51.54069 | 12386 ft | 260 kts | 198° |
| 2026-05-07 23:23 | 64.36170 | -51.55365 | 12034 ft | 260 kts | 198° |
| 2026-05-07 23:24 | 64.34476 | -51.56618 | 11687 ft | 259 kts | 198° |
| 2026-05-07 23:24 | 64.32765 | -51.57882 | 11363 ft | 258 kts | 197° |
| 2026-05-07 23:24 | 64.31073 | -51.59131 | 11165 ft | 251 kts | 197° |
| 2026-05-07 23:24 | 64.29441 | -51.60336 | 11046 ft | 240 kts | 197° |
| 2026-05-07 23:25 | 64.27891 | -51.61477 | 10737 ft | 228 kts | 197° |
| 2026-05-07 23:25 | 64.26418 | -51.62559 | 10382 ft | 218 kts | 197° |
| 2026-05-07 23:25 | 64.25003 | -51.63598 | 10052 ft | 208 kts | 197° |
| 2026-05-07 23:25 | 64.23655 | -51.64588 | 9703 ft | 198 kts | 197° |
| 2026-05-07 23:26 | 64.22798 | -51.65217 | 9463 ft | 193 kts | 196° |
| 2026-05-07 23:26 | 64.21505 | -51.66178 | 9070 ft | 197 kts | 197° |
| 2026-05-07 23:26 | 64.19795 | -51.67500 | 8448 ft | 192 kts | 197° |
| 2026-05-07 23:26 | 64.18783 | -51.68300 | 7056 ft | 254 kts | 197° |
| 2026-05-07 23:27 | 64.15857 | -51.70539 | 7502 ft | 206 kts | 194° |
| 2026-05-07 23:27 | 64.14514 | -51.71444 | 7337 ft | 204 kts | 195° |
| 2026-05-07 23:27 | 64.13122 | -51.72477 | 6767 ft | 218 kts | 195° |
| 2026-05-07 23:28 | 64.11609 | -51.73161 | 5935 ft | 230 kts | 163° |
| 2026-05-07 23:28 | 64.10521 | -51.70555 | 5745 ft | 214 kts | 110° |
| 2026-05-07 23:28 | 64.10518 | -51.67735 | 6272 ft | 177 kts | 73° |
| 2026-05-07 23:28 | 64.11194 | -51.64872 | 5416 ft | 240 kts | 47° |
| 2026-05-07 23:29 | 64.12519 | -51.62053 | 5569 ft | 265 kts | 33° |
| 2026-05-07 23:29 | 64.13988 | -51.59909 | 6750 ft | 248 kts | 27° |
| 2026-05-07 23:29 | 64.15551 | -51.57788 | 6803 ft | 279 kts | 25° |
| 2026-05-07 23:29 | 64.17289 | -51.55648 | 7334 ft | 274 kts | 22° |
| 2026-05-07 23:30 | 64.18807 | -51.53887 | 8939 ft | 212 kts | 19° |
| 2026-05-07 23:30 | 64.19979 | -51.52526 | 10085 ft | 170 kts | 15° |
| 2026-05-07 23:30 | 64.21022 | -51.51216 | 10286 ft | 183 kts | 16° |
| 2026-05-07 23:30 | 64.22263 | -51.49762 | 10026 ft | 210 kts | 10° |
| 2026-05-07 23:31 | 64.23604 | -51.48857 | 10477 ft | 185 kts | 0° |
| 2026-05-07 23:31 | 64.24794 | -51.48117 | 10888 ft | 180 kts | 359° |
| 2026-05-07 23:31 | 64.26060 | -51.47822 | 10184 ft | 188 kts | 332° |
| 2026-05-07 23:31 | 64.27150 | -51.49677 | 7857 ft | 217 kts | 296° |
| 2026-05-07 23:32 | 64.27361 | -51.53047 | 6653 ft | 209 kts | 253° |
| 2026-05-07 23:32 | 64.26856 | -51.55903 | 6225 ft | 179 kts | 250° |
| 2026-05-07 23:32 | 64.26543 | -51.58440 | 5622 ft | 168 kts | 253° |
| 2026-05-07 23:32 | 64.26054 | -51.61038 | 4406 ft | 186 kts | 243° |
| 2026-05-07 23:33 | 64.25331 | -51.63613 | 3216 ft | 196 kts | 225° |
| 2026-05-07 23:33 | 64.24170 | -51.64979 | 2519 ft | 185 kts | 194° |
| 2026-05-07 23:33 | 64.22880 | -51.64980 | 1645 ft | 186 kts | 180° |
| 2026-05-07 23:33 | 64.21675 | -51.65581 | 955 ft | 176 kts | 208° |
| 2026-05-07 23:34 | 64.20600 | -51.66679 | 479 ft | 162 kts | 201° |
| 2026-05-07 23:34 | 64.19610 | -51.67404 | 298 ft | 137 kts | 199° |
| 2026-05-07 23:34 | 64.19064 | -51.67829 | 284 ft | 28 kts | 198° |
| 2026-05-07 23:34 | 64.19028 | -51.67858 | 285 ft | 6 kts | 199° |
| 2026-05-07 23:35 | 64.18964 | -51.67912 | 286 ft | 5 kts | 208° |
| 2026-05-07 23:35 | 64.18937 | -51.67966 | 284 ft | 4 kts | 214° |
| 2026-05-07 23:35 | 64.18929 | -51.67954 | 284 ft | 0 kts | 123° |
| 2026-05-07 23:35 | 64.18934 | -51.67935 | 288 ft | 7 kts | 53° |
| 2026-05-07 23:36 | 64.19008 | -51.67878 | 286 ft | 19 kts | 18° |
| 2026-05-07 23:36 | 64.19101 | -51.67767 | 288 ft | 4 kts | 90° |
| 2026-05-07 23:36 | 64.19071 | -51.67628 | 282 ft | 20 kts | 109° |
| 2026-05-07 23:36 | 64.19113 | -51.67452 | 278 ft | 0 kts | 320° |